createdAt,value
2018-06-01T00:00:27.044Z,19.30
2018-06-01T00:02:54.736Z,19.10
2018-06-01T00:05:22.195Z,19.10
2018-06-01T00:07:50.420Z,19.00
2018-06-01T00:10:18.290Z,19.10
2018-06-01T00:12:46.508Z,19.20
2018-06-01T00:15:15.477Z,19.20
2018-06-01T00:17:42.954Z,19.10
2018-06-01T00:20:11.181Z,19.10
2018-06-01T00:22:38.649Z,19.10
2018-06-01T00:25:06.536Z,19.10
2018-06-01T00:27:34.380Z,19.00
2018-06-01T00:30:02.601Z,19.10
2018-06-01T00:32:30.451Z,19.20
2018-06-01T00:34:58.713Z,19.20
2018-06-01T00:37:26.569Z,19.30
2018-06-01T00:39:54.781Z,19.40
2018-06-01T00:42:22.635Z,19.20
2018-06-01T00:44:50.544Z,19.20
2018-06-01T00:49:46.832Z,19.40
2018-06-01T00:52:15.053Z,19.40
2018-06-01T00:54:54.625Z,19.40
2018-06-01T00:57:22.708Z,19.40
2018-06-01T00:59:50.180Z,19.60
2018-06-01T01:02:17.633Z,19.70
2018-06-01T01:04:45.092Z,19.80
2018-06-01T01:07:12.537Z,19.80
2018-06-01T01:09:40.006Z,19.80
2018-06-01T01:12:07.456Z,19.80
2018-06-01T01:14:34.913Z,19.70
2018-06-01T01:17:02.364Z,19.70
2018-06-01T01:19:29.906Z,19.80
2018-06-01T01:21:57.382Z,19.80
2018-06-01T01:24:25.309Z,19.80
2018-06-01T01:26:52.762Z,19.80
2018-06-01T01:29:20.998Z,19.60
2018-06-01T01:31:49.210Z,19.60
2018-06-01T01:34:17.430Z,19.60
2018-06-01T01:36:44.898Z,19.50
2018-06-01T01:39:12.365Z,19.40
2018-06-01T01:41:39.813Z,19.30
2018-06-01T01:44:07.662Z,19.40
2018-06-01T01:46:35.900Z,19.50
2018-06-01T01:49:03.382Z,19.50
2018-06-01T01:51:30.881Z,19.50
2018-06-01T01:53:58.566Z,19.50
2018-06-01T01:56:27.509Z,19.40
2018-06-01T01:58:54.966Z,19.20
2018-06-01T02:01:23.188Z,19.00
2018-06-01T02:03:51.058Z,19.00
2018-06-01T02:06:18.515Z,19.10
2018-06-01T02:08:46.381Z,19.10
2018-06-01T02:11:13.838Z,19.00
2018-06-01T02:13:42.062Z,19.00
2018-06-01T02:16:10.286Z,19.20
2018-06-01T02:18:37.745Z,19.20
2018-06-01T02:21:05.198Z,19.10
2018-06-01T02:23:32.669Z,19.10
2018-06-01T02:28:28.935Z,19.50
2018-06-01T02:30:56.416Z,19.80
2018-06-01T02:33:23.871Z,19.80
2018-06-01T02:35:51.310Z,19.80
2018-06-01T02:38:18.781Z,19.80
2018-06-01T02:40:46.630Z,19.90
2018-06-01T02:43:14.868Z,19.70
2018-06-01T02:45:42.317Z,19.60
2018-06-01T02:48:09.777Z,19.60
2018-06-01T02:50:37.218Z,19.50
2018-06-01T02:53:05.479Z,19.40
2018-06-01T02:55:32.930Z,19.30
2018-06-01T02:58:00.769Z,19.20
2018-06-01T03:00:30.753Z,19.00
2018-06-01T03:03:00.579Z,19.00
2018-06-01T03:08:10.862Z,18.60
2018-06-01T03:16:32.156Z,18.30
2018-06-01T03:18:59.716Z,18.00
2018-06-01T03:21:28.398Z,17.70
2018-06-01T03:24:12.924Z,17.50
2018-06-01T03:26:48.150Z,17.50
2018-06-01T03:29:32.829Z,17.30
2018-06-01T03:32:00.412Z,17.30
2018-06-01T03:34:28.124Z,17.40
2018-06-01T03:41:53.230Z,17.40
2018-06-01T03:46:50.402Z,17.50
2018-06-01T03:49:18.242Z,17.50
2018-06-01T03:51:45.683Z,17.50
2018-06-01T03:56:42.385Z,17.20
2018-06-01T03:59:09.892Z,17.20
2018-06-01T04:01:37.330Z,17.10
2018-06-01T04:04:05.815Z,17.20
2018-06-01T04:06:33.299Z,17.20
2018-06-01T04:09:00.754Z,17.20
2018-06-01T04:11:28.214Z,17.30
2018-06-01T04:13:55.718Z,17.30
2018-06-01T04:16:23.921Z,17.40
2018-06-01T04:18:51.376Z,17.40
2018-06-01T04:21:18.830Z,17.50
2018-06-01T04:23:46.278Z,17.50
2018-06-01T04:28:42.556Z,17.30
2018-06-01T04:31:10.041Z,17.30
2018-06-01T04:33:39.015Z,17.30
2018-06-01T04:36:06.475Z,17.40
2018-06-01T04:38:34.763Z,17.40
2018-06-01T04:41:02.609Z,17.50
2018-06-01T04:43:30.494Z,17.60
2018-06-01T04:45:57.955Z,17.60
2018-06-01T04:48:26.952Z,17.70
2018-06-01T04:50:55.242Z,17.70
2018-06-01T04:53:22.800Z,17.70
2018-06-01T04:55:50.294Z,17.70
2018-06-01T05:00:46.739Z,17.70
2018-06-01T05:03:14.241Z,17.70
2018-06-01T05:05:43.377Z,17.70
2018-06-01T05:50:56.954Z,17.80
2018-06-01T06:31:51.201Z,18.30
2018-06-01T06:43:16.514Z,18.60
2018-06-01T06:53:33.718Z,18.70
2018-06-01T06:56:16.076Z,18.70
2018-06-01T07:01:55.444Z,18.80
2018-06-01T07:12:54.359Z,19.00
2018-06-01T07:15:22.229Z,19.00
2018-06-01T07:17:59.947Z,19.20
2018-06-01T07:20:28.468Z,19.30
2018-06-01T07:22:56.889Z,19.00
2018-06-01T07:25:27.591Z,19.00
2018-06-01T07:27:58.477Z,19.10
2018-06-01T07:33:42.989Z,19.00
2018-06-01T07:50:48.168Z,18.90
2018-06-01T07:53:16.541Z,19.20
2018-06-01T08:30:54.961Z,19.70
2018-06-01T08:41:58.197Z,19.60
2018-06-01T08:50:12.108Z,19.50
2018-06-01T08:53:00.165Z,19.70
2018-06-01T09:04:38.212Z,19.90
2018-06-01T09:27:16.599Z,20.20
2018-06-01T09:32:52.525Z,20.00
2018-06-01T09:35:28.465Z,20.00
2018-06-01T09:58:04.593Z,20.20
2018-06-01T10:00:54.675Z,20.20
2018-06-01T10:03:23.638Z,20.20
2018-06-01T10:09:13.840Z,20.00
2018-06-01T10:17:36.427Z,19.90
2018-06-01T10:20:06.024Z,19.80
2018-06-01T10:22:58.886Z,19.90
2018-06-01T10:25:26.433Z,19.90
2018-06-01T10:36:35.347Z,20.00
2018-06-01T10:42:05.995Z,19.60
2018-06-01T10:44:35.432Z,19.60
2018-06-01T10:49:45.459Z,19.30
2018-06-01T10:54:59.714Z,19.20
2018-06-01T11:00:31.764Z,19.10
2018-06-01T11:05:36.104Z,19.10
2018-06-01T11:13:56.880Z,19.00
2018-06-01T11:19:00.367Z,18.90
2018-06-01T11:21:31.828Z,19.00
2018-06-01T11:24:00.114Z,18.80
2018-06-01T11:26:36.121Z,18.80
2018-06-01T11:41:20.585Z,18.90
2018-06-01T11:55:22.866Z,18.80
2018-06-01T12:03:28.557Z,18.90
2018-06-01T12:27:27.720Z,18.60
2018-06-01T12:30:06.529Z,18.60
2018-06-01T12:35:36.948Z,18.50
2018-06-01T12:41:07.938Z,18.40
2018-06-01T12:43:46.935Z,18.40
2018-06-01T12:49:18.027Z,18.30
2018-06-01T12:54:42.438Z,18.30
2018-06-01T12:57:11.808Z,18.20
2018-06-01T13:03:03.190Z,18.10
2018-06-01T13:05:31.762Z,18.10
2018-06-01T13:07:59.262Z,18.10
2018-06-01T13:10:26.779Z,18.10
2018-06-01T13:13:12.241Z,18.10
2018-06-01T13:15:55.697Z,18.10
2018-06-01T13:18:23.251Z,18.10
2018-06-01T13:23:51.857Z,18.10
2018-06-01T13:29:22.998Z,17.90
2018-06-01T13:31:55.785Z,17.90
2018-06-01T13:34:23.315Z,17.90
2018-06-01T13:36:50.812Z,17.80
2018-06-01T13:39:20.328Z,17.80
2018-06-01T13:41:53.671Z,17.80
2018-06-01T13:44:23.323Z,17.80
2018-06-01T13:46:52.173Z,17.80
2018-06-01T13:49:23.846Z,17.90
2018-06-01T13:51:51.453Z,17.90
2018-06-01T13:54:19.389Z,17.90
2018-06-01T13:56:48.021Z,17.90
2018-06-01T13:59:21.141Z,17.90
2018-06-01T14:01:48.618Z,17.90
2018-06-01T14:04:17.009Z,17.90
2018-06-01T14:06:56.307Z,17.80
2018-06-01T14:09:26.472Z,17.80
2018-06-01T14:12:18.399Z,17.80
2018-06-01T14:14:46.728Z,17.70
2018-06-01T14:17:26.059Z,17.70
2018-06-01T14:24:24.988Z,17.60
2018-06-01T14:32:17.032Z,17.50
2018-06-01T14:34:55.682Z,17.60
2018-06-01T14:37:29.644Z,17.70
2018-06-01T14:40:07.909Z,17.70
2018-06-01T14:42:54.902Z,17.70
2018-06-01T14:45:32.770Z,17.70
2018-06-01T14:50:51.427Z,17.60
2018-06-01T14:56:09.636Z,17.60
2018-06-01T15:10:46.199Z,17.50
2018-06-01T15:13:17.059Z,17.50
2018-06-01T15:15:44.583Z,17.40
2018-06-01T15:18:12.066Z,17.40
2018-06-01T15:20:55.991Z,17.30
2018-06-01T15:23:27.064Z,17.30
2018-06-01T15:32:26.147Z,17.30
2018-06-01T15:34:53.618Z,17.20
2018-06-01T15:37:21.643Z,17.20
2018-06-01T15:39:49.117Z,17.10
2018-06-01T15:42:25.959Z,17.10
2018-06-01T15:49:53.555Z,17.00
2018-06-01T15:52:22.934Z,16.90
2018-06-01T15:54:50.529Z,16.90
2018-06-01T16:00:25.830Z,17.00
2018-06-01T16:05:41.199Z,17.00
2018-06-01T16:08:09.933Z,17.00
2018-06-01T16:14:02.603Z,17.10
2018-06-01T16:19:21.010Z,17.00
2018-06-01T16:21:52.306Z,17.10
2018-06-01T16:24:22.036Z,17.10
2018-06-01T16:29:30.548Z,17.20
2018-06-01T16:31:59.022Z,17.10
2018-06-01T16:34:26.991Z,17.00
2018-06-01T16:36:55.515Z,17.10
2018-06-01T16:39:23.683Z,17.10
2018-06-01T16:41:53.141Z,17.10
2018-06-01T16:44:20.804Z,17.10
2018-06-01T16:49:50.403Z,17.10
2018-06-01T16:57:47.846Z,17.00
2018-06-01T17:00:25.860Z,17.00
2018-06-01T17:02:56.867Z,17.00
2018-06-01T17:08:09.808Z,17.00
2018-06-01T17:13:38.565Z,17.00
2018-06-01T17:24:56.713Z,17.10
2018-06-01T17:27:26.254Z,17.00
2018-06-01T17:29:54.530Z,17.00
2018-06-01T17:32:29.294Z,17.00
2018-06-01T17:34:57.003Z,17.00
2018-06-01T17:37:26.953Z,17.00
2018-06-01T17:43:00.754Z,17.00
2018-06-01T17:54:55.276Z,17.00
2018-06-01T17:57:35.077Z,17.10
2018-06-01T18:00:15.751Z,17.10
2018-06-01T18:05:22.254Z,17.00
2018-06-01T18:08:02.278Z,17.00
2018-06-01T18:10:31.873Z,17.10
2018-06-01T18:13:01.401Z,17.10
2018-06-01T18:18:52.023Z,17.10
2018-06-01T18:21:20.547Z,17.00
2018-06-01T18:23:48.035Z,17.00
2018-06-01T18:26:25.420Z,17.00
2018-06-01T18:28:57.179Z,17.00
2018-06-01T18:46:17.159Z,17.00
2018-06-01T18:48:48.184Z,17.10
2018-06-01T18:51:17.185Z,17.00
2018-06-01T18:53:44.854Z,17.10
2018-06-01T19:02:04.825Z,17.00
2018-06-01T19:22:17.847Z,16.80
2018-06-01T19:27:39.323Z,16.90
2018-06-01T19:30:07.800Z,16.80
2018-06-01T19:41:49.303Z,16.80
2018-06-01T19:44:18.660Z,16.80
2018-06-01T19:46:55.981Z,16.80
2018-06-01T19:55:14.752Z,16.80
2018-06-01T20:00:59.746Z,16.80
2018-06-01T20:03:44.598Z,16.90
2018-06-01T20:06:13.145Z,16.80
2018-06-01T20:14:40.739Z,16.90
2018-06-01T20:17:08.261Z,16.90
2018-06-01T20:19:35.744Z,16.90
2018-06-01T20:22:05.749Z,16.90
2018-06-01T20:27:31.229Z,16.90
2018-06-01T20:36:09.926Z,16.90
2018-06-01T20:41:40.640Z,16.90
2018-06-01T20:53:25.246Z,16.70
2018-06-01T20:58:53.538Z,16.90
2018-06-01T21:04:09.234Z,16.80
2018-06-01T21:06:36.765Z,16.80
2018-06-01T21:09:20.767Z,16.80
2018-06-01T21:11:48.450Z,16.80
2018-06-01T21:14:16.316Z,16.80
2018-06-01T21:19:41.405Z,16.90
2018-06-01T21:22:08.874Z,16.80
2018-06-01T21:27:45.652Z,16.80
2018-06-01T21:30:13.290Z,16.80
2018-06-01T21:32:58.824Z,16.80
2018-06-01T21:35:26.941Z,16.80
2018-06-01T21:37:54.504Z,16.80
2018-06-01T21:40:22.958Z,16.80
2018-06-01T21:42:50.486Z,16.80
2018-06-01T21:45:17.988Z,16.70
2018-06-01T21:53:56.280Z,16.80
2018-06-01T21:56:24.172Z,16.80
2018-06-01T22:01:55.013Z,16.80
2018-06-01T22:04:25.733Z,16.80
2018-06-01T22:06:53.195Z,16.70
2018-06-01T22:09:21.436Z,16.70
2018-06-01T22:11:49.199Z,16.70
2018-06-01T22:14:29.211Z,16.70
2018-06-01T22:20:02.946Z,16.50
2018-06-01T22:22:30.599Z,16.40
2018-06-01T22:24:58.070Z,16.40
2018-06-01T22:30:18.522Z,16.30
2018-06-01T22:32:45.983Z,16.30
2018-06-01T22:35:21.172Z,16.30
2018-06-01T22:44:13.281Z,16.30
2018-06-01T22:46:45.518Z,16.10
2018-06-01T22:49:26.012Z,16.30
2018-06-01T23:00:53.898Z,16.20
2018-06-01T23:03:21.404Z,16.20
2018-06-01T23:05:49.205Z,16.40
2018-06-01T23:11:20.456Z,16.60
2018-06-01T23:13:55.125Z,16.50
2018-06-01T23:19:35.739Z,16.30
2018-06-01T23:22:24.363Z,16.20
2018-06-01T23:24:52.019Z,16.10
2018-06-01T23:27:20.570Z,16.10
2018-06-01T23:29:55.574Z,16.10
2018-06-01T23:35:28.626Z,16.20
2018-06-01T23:38:10.403Z,16.20
2018-06-01T23:40:37.913Z,16.10
2018-06-01T23:43:05.348Z,16.10
2018-06-01T23:48:28.011Z,16.10
2018-06-01T23:50:57.014Z,16.10
2018-06-01T23:53:24.625Z,16.10
2018-06-01T23:55:52.469Z,16.10
